Time;durP1;ratioP1;P1;durP2;ratioP2;P2;SDS_P1;SDS_P2;PMS_P1;PMS_P2;Temp;Humidity;BMP_temperature;BMP_pressure;BME280_temperature;BME280_humidity;BME280_pressure;Samples;Min_cycle;Max_cycle;Signal;HPM_P1;HPM_P2
2023/05/04 00:01:02;;;;;;;8.23;5.27;;;11.30;99.90;;;;;;5068419;28;20193;-76
2023/05/04 00:03:28;;;;;;;7.70;5.53;;;11.30;99.90;;;;;;5068132;28;20181;-76
2023/05/04 00:05:54;;;;;;;9.47;5.63;;;11.30;99.90;;;;;;5053205;28;20209;-76
2023/05/04 00:08:19;;;;;;;8.03;5.00;;;11.30;99.90;;;;;;5048265;28;20217;-76
2023/05/04 00:10:45;;;;;;;8.93;5.87;;;11.20;99.90;;;;;;5080882;28;20208;-76
2023/05/04 00:13:11;;;;;;;9.10;5.73;;;11.20;99.90;;;;;;5088533;28;20200;-76
2023/05/04 00:15:36;;;;;;;5.13;4.73;;;11.20;99.90;;;;;;5089134;28;20173;-76
2023/05/04 00:18:02;;;;;;;6.20;5.60;;;11.20;99.90;;;;;;5070763;28;20212;-76
2023/05/04 00:20:28;;;;;;;6.97;5.90;;;11.10;99.90;;;;;;5070687;28;20182;-76
2023/05/04 00:22:53;;;;;;;7.80;5.73;;;11.00;99.90;;;;;;5088853;28;20283;-76
2023/05/04 00:25:19;;;;;;;7.77;5.20;;;11.00;99.90;;;;;;5074350;28;20192;-76
2023/05/04 00:27:45;;;;;;;8.10;5.80;;;11.00;99.90;;;;;;5068442;28;20169;-76
2023/05/04 00:30:11;;;;;;;6.30;5.70;;;11.00;99.90;;;;;;5069901;28;20204;-76
2023/05/04 00:32:36;;;;;;;7.10;6.27;;;11.00;99.90;;;;;;5069008;28;20592;-76
2023/05/04 00:35:02;;;;;;;6.90;5.50;;;11.10;99.90;;;;;;5068682;28;20423;-76
2023/05/04 00:37:28;;;;;;;6.30;4.80;;;11.10;99.90;;;;;;5068418;28;20669;-76
2023/05/04 00:39:53;;;;;;;6.10;5.20;;;11.00;99.90;;;;;;5068293;28;20407;-76
2023/05/04 00:42:19;;;;;;;7.27;5.57;;;10.90;99.90;;;;;;5068472;28;20235;-76
2023/05/04 00:44:45;;;;;;;6.90;6.20;;;10.90;99.90;;;;;;5068130;28;20571;-76
2023/05/04 00:47:12;;;;;;;7.10;5.67;;;11.00;99.90;;;;;;5068101;28;20525;-76
2023/05/04 00:49:38;;;;;;;7.87;5.67;;;11.00;99.90;;;;;;5068233;28;20423;-76
2023/05/04 00:52:04;;;;;;;7.37;5.70;;;11.00;99.90;;;;;;5050535;28;20916;-77
2023/05/04 00:54:31;;;;;;;6.43;5.57;;;10.90;99.90;;;;;;5068141;28;20461;-76
2023/05/04 00:56:57;;;;;;;7.13;6.37;;;10.90;99.90;;;;;;5067971;28;20461;-77
2023/05/04 00:59:22;;;;;;;7.03;5.83;;;10.90;99.90;;;;;;5051880;28;20407;-76
2023/05/04 01:01:48;;;;;;;7.60;6.80;;;10.80;99.90;;;;;;5072091;28;20241;-76
2023/05/04 01:04:14;;;;;;;7.20;6.50;;;10.80;99.90;;;;;;5071588;28;20201;-76
2023/05/04 01:06:40;;;;;;;10.30;6.30;;;10.80;99.90;;;;;;5054128;28;20256;-76
2023/05/04 01:09:21;;;;;;;9.07;6.50;;;10.80;99.90;;;;;;5073951;28;20644;-76
2023/05/04 01:11:52;;;;;;;7.70;5.90;;;10.70;99.90;;;;;;5092086;28;20215;-76
2023/05/04 01:14:20;;;;;;;6.83;5.73;;;10.80;99.90;;;;;;5091836;28;20438;-76
2023/05/04 01:16:47;;;;;;;8.30;6.43;;;10.70;99.90;;;;;;5091767;28;20501;-76
2023/05/04 01:19:12;;;;;;;11.03;7.27;;;10.80;99.90;;;;;;5092043;28;20450;-76
2023/05/04 01:21:38;;;;;;;8.77;6.80;;;10.80;99.90;;;;;;5091816;28;21016;-76
2023/05/04 01:24:05;;;;;;;7.00;6.10;;;10.70;99.90;;;;;;5069968;28;20238;-76
2023/05/04 01:26:37;;;;;;;13.03;6.97;;;10.60;99.90;;;;;;5071928;28;20791;-76
2023/05/04 01:29:16;;;;;;;7.23;6.53;;;10.60;99.90;;;;;;5071411;28;20912;-76
2023/05/04 01:31:44;;;;;;;8.90;7.07;;;10.40;99.90;;;;;;5053680;28;20483;-76
2023/05/04 01:34:11;;;;;;;9.37;8.47;;;10.40;99.90;;;;;;5071390;28;20923;-76
2023/05/04 01:36:38;;;;;;;8.10;6.60;;;10.40;99.90;;;;;;5071814;28;20473;-76
2023/05/04 01:39:04;;;;;;;9.37;7.30;;;10.40;99.90;;;;;;5070309;28;20407;-76
2023/05/04 01:41:29;;;;;;;9.40;6.70;;;10.30;99.90;;;;;;5071332;28;20472;-75
2023/05/04 01:43:56;;;;;;;9.53;6.70;;;10.30;99.90;;;;;;5071334;28;20177;-76
2023/05/04 01:46:22;;;;;;;7.40;6.67;;;10.20;99.90;;;;;;5053533;28;20223;-76
2023/05/04 01:48:48;;;;;;;9.57;6.70;;;10.20;99.90;;;;;;5071180;28;20443;-76
2023/05/04 01:51:13;;;;;;;7.93;6.67;;;10.10;99.90;;;;;;5052726;28;20216;-76
2023/05/04 01:53:39;;;;;;;10.60;7.03;;;10.10;99.90;;;;;;5070850;28;20220;-76
2023/05/04 01:56:05;;;;;;;7.73;6.40;;;10.10;99.90;;;;;;5071197;28;20265;-76
2023/05/04 01:58:31;;;;;;;8.30;6.80;;;10.00;99.90;;;;;;5070776;28;20173;-76
2023/05/04 02:01:00;;;;;;;8.37;7.53;;;10.10;99.90;;;;;;5070667;28;20426;-76
2023/05/04 02:03:26;;;;;;;7.97;7.13;;;10.10;99.90;;;;;;5070610;28;20438;-76
2023/05/04 02:05:51;;;;;;;9.77;6.73;;;10.10;99.90;;;;;;5070969;28;20439;-76
2023/05/04 02:08:17;;;;;;;10.60;7.30;;;10.00;99.90;;;;;;5070440;28;20230;-76
2023/05/04 02:10:43;;;;;;;11.07;6.63;;;10.00;99.90;;;;;;5086117;28;20817;-76
2023/05/04 02:13:09;;;;;;;7.37;6.67;;;10.00;99.90;;;;;;5090453;28;20509;-76
2023/05/04 02:15:34;;;;;;;12.40;6.63;;;10.10;99.90;;;;;;5090964;28;20173;-76
2023/05/04 02:18:00;;;;;;;8.40;7.53;;;10.00;99.90;;;;;;5090478;28;20177;-76
2023/05/04 02:20:26;;;;;;;10.57;8.53;;;10.00;99.90;;;;;;5090759;28;20606;-76
2023/05/04 02:22:51;;;;;;;10.43;8.10;;;9.90;99.90;;;;;;5090503;28;20196;-76
2023/05/04 02:25:17;;;;;;;12.33;9.70;;;10.00;99.90;;;;;;5058610;28;20224;-76
2023/05/04 02:27:43;;;;;;;12.83;9.20;;;10.00;99.90;;;;;;5052121;28;20207;-76
2023/05/04 02:30:09;;;;;;;10.93;8.60;;;10.00;99.90;;;;;;5070163;28;20201;-76
2023/05/04 02:32:35;;;;;;;9.90;8.90;;;9.90;99.90;;;;;;5070291;28;20200;-76
2023/05/04 02:35:01;;;;;;;9.83;8.47;;;9.90;99.90;;;;;;5069968;28;20408;-76
2023/05/04 02:37:27;;;;;;;9.87;8.60;;;9.80;99.90;;;;;;5052056;28;20714;-76
2023/05/04 02:39:52;;;;;;;10.50;8.90;;;9.80;99.90;;;;;;5069974;28;20495;-76
2023/05/04 02:42:18;;;;;;;9.00;8.10;;;9.90;99.90;;;;;;5069733;28;20204;-76
2023/05/04 02:44:44;;;;;;;11.90;8.13;;;9.80;99.90;;;;;;5069837;28;20212;-76
2023/05/04 02:47:10;;;;;;;9.43;8.33;;;9.80;99.90;;;;;;5051727;28;20429;-76
2023/05/04 02:49:35;;;;;;;11.60;9.03;;;9.70;99.90;;;;;;5069531;28;20181;-76
2023/05/04 02:52:01;;;;;;;11.93;8.80;;;9.70;99.90;;;;;;5069810;28;20192;-76
2023/05/04 02:54:27;;;;;;;10.90;8.90;;;9.60;99.90;;;;;;5069578;28;20177;-76
2023/05/04 02:56:52;;;;;;;11.00;8.30;;;9.60;99.90;;;;;;5069554;28;20243;-76
2023/05/04 02:59:19;;;;;;;9.40;8.50;;;9.60;99.90;;;;;;5070201;28;20189;-77
2023/05/04 03:01:44;;;;;;;9.83;8.33;;;9.60;99.90;;;;;;5069514;28;20205;-77
2023/05/04 03:04:10;;;;;;;10.10;7.97;;;9.50;99.90;;;;;;5069322;28;20434;-77
2023/05/04 03:06:36;;;;;;;11.10;7.60;;;9.50;99.90;;;;;;5069491;28;20192;-77
2023/05/04 03:09:03;;;;;;;10.30;8.03;;;9.50;99.90;;;;;;5071430;28;20173;-77
2023/05/04 03:11:29;;;;;;;10.13;8.23;;;9.40;99.90;;;;;;5089284;28;20485;-76
2023/05/04 03:13:54;;;;;;;10.30;8.10;;;9.30;99.90;;;;;;5089548;28;20772;-77
2023/05/04 03:16:20;;;;;;;12.67;8.07;;;9.30;99.90;;;;;;5071871;28;20173;-77
2023/05/04 03:18:46;;;;;;;9.60;8.60;;;9.20;99.90;;;;;;5089288;28;20177;-77
2023/05/04 03:21:11;;;;;;;10.23;7.93;;;9.20;99.90;;;;;;5088502;28;20200;-77
2023/05/04 03:23:37;;;;;;;8.43;7.40;;;9.20;99.90;;;;;;5089180;28;20177;-77
2023/05/04 03:26:03;;;;;;;8.80;7.40;;;9.20;99.90;;;;;;5069245;28;20215;-77
2023/05/04 03:28:29;;;;;;;8.00;6.90;;;9.20;99.90;;;;;;5068832;28;20357;-76
2023/05/04 03:30:54;;;;;;;9.23;8.30;;;9.30;99.90;;;;;;5068916;28;20236;-77
2023/05/04 03:33:20;;;;;;;8.60;7.30;;;9.30;99.90;;;;;;5068805;28;20173;-77
2023/05/04 03:35:46;;;;;;;11.60;9.43;;;9.20;99.90;;;;;;5069150;28;20230;-77
2023/05/04 03:38:11;;;;;;;8.67;7.37;;;9.30;99.90;;;;;;5068689;28;20173;-77
2023/05/04 03:40:37;;;;;;;10.93;7.33;;;9.20;99.90;;;;;;5068877;28;20197;-77
2023/05/04 03:43:03;;;;;;;9.50;7.67;;;9.10;99.90;;;;;;5068579;28;20266;-77
2023/05/04 03:45:28;;;;;;;8.47;7.60;;;9.10;99.90;;;;;;5069009;28;20713;-77
2023/05/04 03:47:54;;;;;;;8.03;7.23;;;9.10;99.90;;;;;;5068649;28;20184;-77
2023/05/04 03:50:21;;;;;;;10.80;7.80;;;9.00;99.90;;;;;;5068690;28;20219;-77
2023/05/04 03:52:47;;;;;;;9.90;7.50;;;9.00;99.90;;;;;;5068758;28;20455;-77
2023/05/04 03:55:12;;;;;;;8.20;6.67;;;8.90;99.90;;;;;;5068712;28;20843;-77
2023/05/04 03:57:38;;;;;;;7.83;6.60;;;8.90;99.90;;;;;;5068403;28;20478;-77
2023/05/04 04:00:05;;;;;;;8.47;6.70;;;8.90;99.90;;;;;;5068582;28;20267;-77
2023/05/04 04:02:30;;;;;;;8.07;6.90;;;8.90;99.90;;;;;;5068760;28;20637;-77
2023/05/04 04:04:56;;;;;;;8.40;6.80;;;8.90;99.90;;;;;;5068935;28;20554;-77
2023/05/04 04:07:22;;;;;;;7.33;6.60;;;8.90;99.90;;;;;;5050662;28;20181;-77
2023/05/04 04:09:48;;;;;;;6.53;5.87;;;8.90;99.90;;;;;;5058696;28;20426;-77
2023/05/04 04:12:17;;;;;;;8.33;6.87;;;8.90;99.90;;;;;;5089027;28;20192;-77
2023/05/04 04:14:43;;;;;;;7.77;6.93;;;9.00;99.90;;;;;;5088382;28;20173;-77
2023/05/04 04:17:08;;;;;;;6.57;5.87;;;9.00;99.90;;;;;;5053512;28;20771;-77
2023/05/04 04:19:34;;;;;;;7.43;6.70;;;9.10;99.90;;;;;;5088521;28;20415;-76
2023/05/04 04:22:00;;;;;;;8.93;6.47;;;9.10;99.90;;;;;;5070693;28;20200;-77
2023/05/04 04:24:26;;;;;;;7.40;6.00;;;9.10;99.90;;;;;;5081962;28;20783;-77
2023/05/04 04:26:52;;;;;;;10.30;6.50;;;9.00;99.90;;;;;;5068352;28;20169;-77
2023/05/04 04:29:17;;;;;;;6.83;6.20;;;9.00;99.90;;;;;;5050876;28;20717;-76
2023/05/04 04:31:43;;;;;;;8.53;6.50;;;8.90;99.90;;;;;;5068284;28;20455;-77
2023/05/04 04:34:09;;;;;;;7.57;6.50;;;8.90;99.90;;;;;;5071427;28;20188;-77
2023/05/04 04:36:34;;;;;;;7.97;6.60;;;8.90;99.90;;;;;;5072664;28;20172;-77
2023/05/04 04:39:01;;;;;;;9.53;7.63;;;8.90;99.90;;;;;;5072176;28;20704;-77
2023/05/04 04:41:27;;;;;;;8.60;7.70;;;8.90;99.90;;;;;;5072129;28;20193;-77
2023/05/04 04:43:52;;;;;;;9.67;7.93;;;8.80;99.90;;;;;;5072213;28;20829;-77
2023/05/04 04:46:18;;;;;;;10.27;8.30;;;8.80;99.90;;;;;;5072431;28;20180;-78
2023/05/04 04:48:43;;;;;;;11.87;8.13;;;8.90;99.90;;;;;;5072072;28;20181;-77
2023/05/04 04:51:12;;;;;;;13.10;7.53;;;8.90;99.90;;;;;;5051132;28;20252;-77
2023/05/04 04:53:38;;;;;;;14.40;8.93;;;8.90;99.90;;;;;;5054916;28;20185;-77
2023/05/04 04:56:06;;;;;;;9.60;8.57;;;8.90;99.90;;;;;;5071729;28;20501;-77
2023/05/04 04:58:32;;;;;;;13.10;8.30;;;8.90;99.90;;;;;;5071659;28;20246;-77
2023/05/04 05:00:58;;;;;;;12.70;7.70;;;9.00;99.90;;;;;;5071739;28;20419;-77
2023/05/04 05:03:24;;;;;;;12.10;8.10;;;9.00;99.90;;;;;;5067506;28;20439;-77
2023/05/04 05:05:49;;;;;;;9.13;7.07;;;9.10;99.90;;;;;;5061275;28;20451;-77
2023/05/04 05:08:15;;;;;;;10.77;8.50;;;9.10;99.90;;;;;;5071146;28;20183;-77
2023/05/04 05:10:41;;;;;;;11.53;7.83;;;9.10;99.90;;;;;;5065674;28;20550;-77
2023/05/04 05:13:08;;;;;;;13.20;8.33;;;9.20;99.90;;;;;;5071527;28;20510;-77
2023/05/04 05:15:34;;;;;;;13.37;8.03;;;9.20;99.90;;;;;;5075729;28;20443;-77
2023/05/04 05:18:00;;;;;;;13.13;8.70;;;9.20;99.90;;;;;;5071257;28;20399;-77
2023/05/04 05:20:26;;;;;;;14.37;8.00;;;9.20;99.90;;;;;;5056308;28;21219;-77
2023/05/04 05:22:51;;;;;;;9.20;7.63;;;9.10;99.90;;;;;;5071081;28;20449;-77
2023/05/04 05:25:18;;;;;;;8.83;7.93;;;9.10;99.90;;;;;;5068264;28;20933;-77
2023/05/04 05:27:44;;;;;;;9.33;7.90;;;9.10;99.90;;;;;;5071791;28;20673;-77
2023/05/04 05:30:10;;;;;;;11.03;7.40;;;9.10;99.90;;;;;;5062269;28;20443;-77
2023/05/04 05:32:36;;;;;;;8.73;6.67;;;9.20;99.90;;;;;;5068292;28;20458;-77
2023/05/04 05:35:05;;;;;;;9.17;7.50;;;9.20;99.90;;;;;;5063824;28;20498;-77
2023/05/04 05:37:31;;;;;;;9.10;5.83;;;9.30;99.90;;;;;;5070811;28;20414;-76
2023/05/04 05:39:57;;;;;;;9.63;6.77;;;9.40;99.90;;;;;;5071328;28;20892;-77
2023/05/04 05:42:23;;;;;;;11.17;5.90;;;9.60;99.90;;;;;;5069452;28;20219;-77
2023/05/04 05:44:49;;;;;;;6.27;5.30;;;9.70;99.90;;;;;;5069898;28;20756;-77
2023/05/04 05:47:15;;;;;;;7.03;4.87;;;9.90;99.90;;;;;;5070839;28;20189;-77
2023/05/04 05:49:41;;;;;;;7.20;5.37;;;10.00;99.90;;;;;;5051844;28;20427;-76
2023/05/04 05:52:07;;;;;;;6.20;5.10;;;10.20;99.90;;;;;;5068310;28;20439;-77
2023/05/04 05:54:34;;;;;;;6.30;5.70;;;10.50;99.90;;;;;;5070502;28;20181;-77
2023/05/04 05:57:00;;;;;;;7.60;5.23;;;10.60;99.90;;;;;;5070721;28;20184;-77
2023/05/04 05:59:26;;;;;;;6.93;6.00;;;10.80;99.90;;;;;;5067870;28;20514;-76
2023/05/04 06:01:52;;;;;;;11.33;5.97;;;11.00;99.90;;;;;;5064986;28;20520;-76
2023/05/04 06:04:18;;;;;;;8.40;5.57;;;11.20;99.90;;;;;;5070764;28;20502;-76
2023/05/04 06:06:43;;;;;;;7.77;5.90;;;11.30;99.90;;;;;;5068849;28;20212;-76
2023/05/04 06:09:09;;;;;;;6.43;5.60;;;11.50;99.90;;;;;;5065881;28;20185;-76
2023/05/04 06:11:35;;;;;;;9.00;5.20;;;11.60;99.90;;;;;;5068973;28;20288;-76
2023/05/04 06:14:01;;;;;;;6.20;4.27;;;11.70;99.90;;;;;;5069958;28;21062;-76
2023/05/04 06:16:26;;;;;;;5.23;4.53;;;11.90;99.90;;;;;;5070526;28;20173;-76
2023/05/04 06:18:52;;;;;;;7.37;5.10;;;12.00;99.90;;;;;;5070493;28;20260;-76
2023/05/04 06:21:18;;;;;;;6.63;4.97;;;12.10;99.90;;;;;;5069419;28;20208;-76
2023/05/04 06:23:44;;;;;;;7.70;4.90;;;12.10;99.90;;;;;;5067720;28;20650;-76
2023/05/04 06:26:10;;;;;;;5.23;4.40;;;12.20;99.90;;;;;;5055465;28;20216;-76
2023/05/04 06:28:36;;;;;;;7.40;4.60;;;12.30;99.90;;;;;;5068128;28;20463;-76
2023/05/04 06:31:02;;;;;;;4.83;4.40;;;12.40;99.90;;;;;;5067375;28;20873;-76
2023/05/04 06:33:28;;;;;;;5.70;5.20;;;12.40;99.90;;;;;;5064370;28;20250;-76
2023/05/04 06:35:53;;;;;;;5.63;4.33;;;12.50;99.90;;;;;;5051165;28;20423;-76
2023/05/04 06:38:20;;;;;;;6.17;4.80;;;12.50;99.90;;;;;;5067656;28;20184;-76
2023/05/04 06:40:46;;;;;;;6.07;4.23;;;12.60;99.90;;;;;;5056037;28;20181;-76
2023/05/04 06:43:12;;;;;;;6.90;4.73;;;12.70;99.90;;;;;;5068295;28;20446;-76
2023/05/04 06:45:38;;;;;;;5.87;4.70;;;12.80;99.90;;;;;;5069118;28;20791;-76
2023/05/04 06:48:04;;;;;;;6.40;4.93;;;12.80;99.90;;;;;;5068594;28;20173;-76
2023/05/04 06:50:31;;;;;;;8.03;5.07;;;12.90;99.90;;;;;;5069280;28;20466;-76
2023/05/04 06:53:07;;;;;;;5.57;5.00;;;13.00;99.90;;;;;;5054772;28;21094;-76
2023/05/04 06:55:33;;;;;;;6.20;4.53;;;13.00;99.90;;;;;;5061780;28;20437;-76
2023/05/04 06:57:59;;;;;;;6.97;4.77;;;13.10;99.90;;;;;;5069134;28;20414;-76
2023/05/04 07:00:25;;;;;;;6.27;4.97;;;13.10;99.90;;;;;;5060215;28;20443;-76
2023/05/04 07:02:52;;;;;;;4.93;4.43;;;13.20;99.90;;;;;;5064668;28;20201;-77
2023/05/04 07:05:21;;;;;;;5.80;4.93;;;13.30;99.90;;;;;;5069358;28;20431;-77
2023/05/04 07:07:48;;;;;;;5.10;4.60;;;13.40;99.90;;;;;;5051717;28;21270;-76
2023/05/04 07:10:14;;;;;;;5.63;5.00;;;13.50;99.90;;;;;;5080441;28;20550;-76
2023/05/04 07:12:40;;;;;;;5.83;5.13;;;13.60;99.90;;;;;;5089771;28;20425;-76
2023/05/04 07:15:10;;;;;;;5.03;4.53;;;13.70;99.90;;;;;;5090031;28;21047;-77
2023/05/04 07:17:39;;;;;;;5.70;4.80;;;13.70;99.90;;;;;;5071358;28;20411;-76
2023/05/04 07:20:05;;;;;;;4.97;4.30;;;13.80;99.90;;;;;;5071592;28;20779;-76
2023/05/04 07:22:32;;;;;;;6.60;4.70;;;13.90;99.90;;;;;;5089799;28;20430;-77
2023/05/04 07:24:58;;;;;;;6.70;4.63;;;14.00;99.90;;;;;;5078515;28;20975;-76
2023/05/04 07:27:24;;;;;;;5.67;5.10;;;14.00;99.90;;;;;;5069103;28;20418;-76
2023/05/04 07:29:50;;;;;;;6.23;4.80;;;14.10;99.90;;;;;;5069099;28;20802;-76
2023/05/04 07:32:16;;;;;;;4.50;4.10;;;14.20;99.90;;;;;;5069485;28;20768;-76
2023/05/04 07:34:43;;;;;;;5.00;4.53;;;14.30;99.90;;;;;;5069158;28;20255;-76
2023/05/04 07:37:08;;;;;;;7.23;4.37;;;14.30;99.90;;;;;;5069098;28;20423;-76
2023/05/04 07:39:35;;;;;;;4.73;4.17;;;14.40;99.90;;;;;;5051329;28;20412;-76
2023/05/04 07:42:06;;;;;;;5.37;4.87;;;14.50;99.90;;;;;;5068172;28;20443;-76
2023/05/04 07:44:31;;;;;;;8.03;4.43;;;14.50;99.90;;;;;;5067869;28;20976;-76
2023/05/04 07:46:58;;;;;;;4.53;3.90;;;14.50;99.90;;;;;;5069051;28;20510;-76
2023/05/04 07:49:24;;;;;;;5.10;4.23;;;14.50;99.90;;;;;;5067614;28;20216;-76
2023/05/04 07:51:50;;;;;;;5.27;4.73;;;14.50;99.90;;;;;;5069231;28;20863;-76
2023/05/04 07:54:16;;;;;;;7.33;5.00;;;14.70;99.90;;;;;;5069008;28;20494;-76
2023/05/04 07:56:42;;;;;;;5.20;4.70;;;14.70;99.90;;;;;;5069330;28;20264;-76
2023/05/04 07:59:07;;;;;;;8.50;5.30;;;14.80;99.90;;;;;;5051030;28;20500;-76
2023/05/04 08:01:33;;;;;;;7.93;5.23;;;14.80;99.90;;;;;;5069060;28;20204;-76
2023/05/04 08:03:59;;;;;;;6.80;4.47;;;14.90;99.90;;;;;;5068823;28;20553;-76
2023/05/04 08:06:25;;;;;;;5.30;4.80;;;14.90;99.90;;;;;;5069259;28;20193;-76
2023/05/04 08:08:50;;;;;;;5.33;4.13;;;15.00;99.90;;;;;;5068795;28;20232;-76
2023/05/04 08:11:16;;;;;;;5.17;4.40;;;15.00;99.90;;;;;;5070903;28;21022;-76
2023/05/04 08:13:49;;;;;;;5.57;4.50;;;15.10;99.90;;;;;;5088841;28;20183;-76
2023/05/04 08:16:15;;;;;;;7.40;4.63;;;15.10;99.90;;;;;;5071140;28;21133;-76
2023/05/04 08:18:41;;;;;;;6.17;4.10;;;15.10;99.90;;;;;;5070900;28;20938;-76
2023/05/04 08:21:07;;;;;;;5.80;4.83;;;15.20;99.90;;;;;;5088883;28;20418;-76
2023/05/04 08:23:33;;;;;;;8.90;5.23;;;15.30;99.90;;;;;;5088815;28;20419;-76
2023/05/04 08:26:02;;;;;;;5.27;4.20;;;15.40;99.90;;;;;;5069879;28;20416;-76
2023/05/04 08:28:36;;;;;;;5.43;4.50;;;15.50;99.90;;;;;;5050609;28;20189;-76
2023/05/04 08:31:02;;;;;;;5.77;4.63;;;15.50;99.90;;;;;;5068701;28;20455;-76
2023/05/04 08:33:29;;;;;;;7.53;5.43;;;15.60;99.60;;;;;;5068489;28;20622;-76
2023/05/04 08:35:54;;;;;;;6.87;4.53;;;15.70;99.90;;;;;;5050940;28;20412;-76
2023/05/04 08:38:20;;;;;;;6.47;4.60;;;15.70;99.90;;;;;;5068511;28;20427;-76
2023/05/04 08:40:46;;;;;;;6.67;4.70;;;15.80;99.90;;;;;;5068743;28;20212;-76
2023/05/04 08:43:12;;;;;;;8.60;5.47;;;15.90;99.90;;;;;;5068352;28;20197;-76
2023/05/04 08:45:38;;;;;;;5.83;5.23;;;16.00;99.90;;;;;;5051051;28;20318;-76
2023/05/04 08:48:08;;;;;;;4.97;4.47;;;16.00;99.20;;;;;;5068251;28;20502;-77
2023/05/04 08:50:35;;;;;;;7.20;4.63;;;16.10;99.40;;;;;;5067076;28;20458;-76
2023/05/04 08:53:04;;;;;;;8.40;4.73;;;16.10;99.90;;;;;;5068566;28;20431;-76
2023/05/04 08:55:35;;;;;;;6.03;5.13;;;16.20;99.00;;;;;;5068528;28;20442;-76
2023/05/04 08:58:10;;;;;;;6.17;5.13;;;16.30;99.50;;;;;;5068077;28;21106;-76
2023/05/04 09:00:37;;;;;;;5.17;4.67;;;16.30;98.60;;;;;;5068416;28;20476;-77
2023/05/04 09:03:06;;;;;;;6.27;4.77;;;16.40;99.10;;;;;;5068264;28;20507;-76
2023/05/04 09:05:32;;;;;;;9.53;5.70;;;16.50;99.30;;;;;;5068572;28;20435;-77
2023/05/04 09:07:57;;;;;;;6.10;4.40;;;16.60;98.80;;;;;;5068476;28;20426;-76
2023/05/04 09:10:24;;;;;;;6.50;5.33;;;16.60;98.30;;;;;;5068352;28;20193;-76
2023/05/04 09:12:52;;;;;;;5.20;4.53;;;16.70;98.80;;;;;;5068275;28;20689;-76
2023/05/04 09:15:19;;;;;;;7.20;4.50;;;16.80;98.20;;;;;;5068326;28;20411;-76
2023/05/04 09:18:05;;;;;;;5.03;4.53;;;16.90;98.40;;;;;;5050273;28;20812;-76
2023/05/04 09:20:42;;;;;;;7.03;5.10;;;17.00;98.00;;;;;;5070437;28;20423;-76
2023/05/04 09:23:08;;;;;;;7.30;5.67;;;17.10;99.20;;;;;;5071764;28;20438;-76
2023/05/04 09:25:50;;;;;;;8.03;5.67;;;17.20;99.60;;;;;;5072080;28;20430;-76
2023/05/04 09:28:18;;;;;;;7.87;4.97;;;17.30;97.70;;;;;;5053603;28;20419;-76
2023/05/04 09:30:44;;;;;;;5.80;5.07;;;17.50;98.10;;;;;;5071542;28;20466;-76
2023/05/04 09:33:10;;;;;;;6.80;6.10;;;17.60;97.30;;;;;;5071473;28;20492;-76
2023/05/04 09:35:41;;;;;;;6.90;5.30;;;17.70;97.00;;;;;;5071981;28;20439;-76
2023/05/04 09:38:07;;;;;;;10.20;5.80;;;17.80;96.80;;;;;;5071372;28;20177;-76
2023/05/04 09:40:41;;;;;;;5.37;4.87;;;17.80;97.30;;;;;;5071728;28;20771;-76
2023/05/04 09:43:09;;;;;;;6.10;4.30;;;17.90;96.70;;;;;;5071338;28;20431;-76
2023/05/04 09:45:43;;;;;;;5.83;4.70;;;18.00;97.80;;;;;;5071829;28;20504;-76
2023/05/04 09:48:19;;;;;;;6.77;5.57;;;18.20;95.80;;;;;;5071195;28;20498;-77
2023/05/04 09:50:48;;;;;;;5.07;4.60;;;18.30;94.10;;;;;;5069923;28;20498;-76
2023/05/04 09:53:15;;;;;;;5.60;4.63;;;18.40;94.00;;;;;;5070970;28;20526;-76
2023/05/04 09:55:45;;;;;;;5.63;4.67;;;18.50;93.30;;;;;;5071571;28;20955;-76
2023/05/04 09:58:15;;;;;;;5.63;4.80;;;18.60;92.90;;;;;;5071106;28;21082;-76
2023/05/04 10:00:42;;;;;;;5.87;4.93;;;18.70;92.10;;;;;;5071165;28;20757;-76
2023/05/04 10:03:08;;;;;;;6.73;4.10;;;18.80;91.20;;;;;;5070800;28;20842;-76
2023/05/04 10:05:37;;;;;;;5.33;4.83;;;18.90;91.40;;;;;;5037245;28;20439;-76
2023/05/04 10:08:04;;;;;;;4.70;4.30;;;18.90;91.40;;;;;;5070939;28;20407;-76
2023/05/04 10:10:30;;;;;;;8.37;5.30;;;18.90;92.00;;;;;;5070986;28;20450;-76
2023/05/04 10:12:56;;;;;;;4.77;4.27;;;19.00;92.10;;;;;;5070937;28;20432;-76
2023/05/04 10:15:23;;;;;;;5.57;4.50;;;19.00;92.00;;;;;;5070896;28;20415;-76
2023/05/04 10:18:01;;;;;;;5.60;5.10;;;19.10;92.50;;;;;;5070791;28;20181;-76
2023/05/04 10:20:45;;;;;;;5.03;4.50;;;19.20;92.00;;;;;;5070813;28;20435;-76
2023/05/04 10:23:11;;;;;;;6.10;4.70;;;19.20;92.00;;;;;;5052582;28;20853;-77
2023/05/04 10:25:42;;;;;;;5.27;4.17;;;19.30;91.10;;;;;;5070897;28;20464;-77
2023/05/04 10:28:46;;;;;;;4.90;4.40;;;19.30;91.10;;;;;;5052712;28;20593;-76
2023/05/04 10:31:12;;;;;;;5.00;3.77;;;19.40;89.60;;;;;;5054799;28;20866;-77
2023/05/04 10:33:40;;;;;;;4.53;3.93;;;19.40;88.00;;;;;;5072913;28;20456;-77
2023/05/04 10:36:06;;;;;;;4.27;3.87;;;19.50;89.30;;;;;;5070608;28;20181;-77
2023/05/04 10:38:36;;;;;;;5.03;4.20;;;19.60;88.30;;;;;;5070048;28;20453;-77
2023/05/04 10:41:16;;;;;;;5.13;4.10;;;19.70;90.20;;;;;;5053032;28;20781;-77
2023/05/04 10:43:47;;;;;;;4.43;3.53;;;19.80;90.10;;;;;;5070778;28;20825;-77
2023/05/04 10:46:20;;;;;;;3.90;3.60;;;19.80;86.40;;;;;;5070337;28;20422;-77
2023/05/04 10:48:47;;;;;;;4.20;3.90;;;19.80;86.70;;;;;;5069439;28;20416;-78
2023/05/04 10:51:25;;;;;;;5.23;4.07;;;19.90;86.80;;;;;;5052136;28;20856;-77
2023/05/04 10:53:52;;;;;;;4.67;3.80;;;20.00;80.10;;;;;;5069839;28;20415;-77
2023/05/04 10:56:21;;;;;;;4.50;4.10;;;20.00;79.20;;;;;;5070210;28;20514;-76
2023/05/04 10:58:48;;;;;;;5.57;3.80;;;20.10;83.70;;;;;;5069937;28;21290;-76
2023/05/04 11:01:14;;;;;;;6.60;4.17;;;20.10;79.00;;;;;;5069928;28;20423;-76
2023/05/04 11:03:40;;;;;;;4.07;3.43;;;20.20;77.70;;;;;;5069886;28;20415;-77
2023/05/04 11:06:17;;;;;;;4.67;3.30;;;20.20;76.80;;;;;;5070260;28;20431;-76
2023/05/04 11:08:46;;;;;;;3.40;3.17;;;20.30;76.20;;;;;;5070118;28;20734;-77
2023/05/04 11:11:12;;;;;;;5.07;3.67;;;20.40;75.80;;;;;;5069554;28;20462;-77
2023/05/04 11:13:46;;;;;;;4.03;3.40;;;20.40;74.70;;;;;;5069776;28;20777;-77
2023/05/04 11:16:12;;;;;;;4.90;3.87;;;20.40;74.60;;;;;;5070062;28;20177;-77
2023/05/04 11:18:39;;;;;;;4.50;4.10;;;20.50;75.10;;;;;;5069672;28;21038;-76
2023/05/04 11:21:07;;;;;;;4.40;3.40;;;20.50;74.20;;;;;;5069796;28;20498;-77
2023/05/04 11:23:33;;;;;;;4.77;3.83;;;20.50;78.50;;;;;;5051704;28;20468;-76
2023/05/04 11:26:05;;;;;;;6.83;3.90;;;20.50;79.70;;;;;;5069823;28;20841;-77
2023/05/04 11:28:35;;;;;;;3.93;3.43;;;20.60;78.40;;;;;;5051916;28;20540;-75
2023/05/04 11:31:12;;;;;;;4.10;3.63;;;20.60;75.90;;;;;;5051764;28;20459;-75
2023/05/04 11:33:38;;;;;;;3.80;3.40;;;20.70;71.10;;;;;;5069787;28;20628;-77
2023/05/04 11:36:04;;;;;;;4.10;3.70;;;20.80;74.00;;;;;;5069911;28;20970;-76
2023/05/04 11:38:30;;;;;;;4.37;3.40;;;20.80;71.20;;;;;;5069437;28;20578;-78
2023/05/04 11:40:55;;;;;;;3.20;3.00;;;20.80;76.80;;;;;;5051451;28;20423;-77
2023/05/04 11:43:21;;;;;;;3.03;2.73;;;20.80;74.60;;;;;;5069274;28;20243;-76
2023/05/04 11:45:48;;;;;;;4.00;3.60;;;20.90;68.70;;;;;;5069781;28;20187;-76
2023/05/04 11:48:14;;;;;;;3.73;3.13;;;20.90;62.20;;;;;;5069195;28;20415;-75
2023/05/04 11:50:40;;;;;;;3.40;3.10;;;20.90;63.30;;;;;;5068653;28;20462;-76
2023/05/04 11:53:10;;;;;;;3.37;3.07;;;20.80;64.60;;;;;;5069449;28;20796;-75
2023/05/04 11:55:37;;;;;;;3.67;3.37;;;20.90;65.70;;;;;;5069596;28;20419;-77
2023/05/04 11:58:07;;;;;;;3.47;3.17;;;20.90;67.60;;;;;;5069570;28;20411;-77
2023/05/04 12:00:48;;;;;;;3.40;3.10;;;20.90;69.20;;;;;;5070079;28;20423;-77
2023/05/04 12:03:16;;;;;;;4.83;3.63;;;21.00;67.20;;;;;;5051489;28;20427;-78
2023/05/04 12:05:53;;;;;;;4.47;3.67;;;21.10;65.80;;;;;;5052166;28;20467;-77
2023/05/04 12:08:30;;;;;;;5.90;3.40;;;21.00;66.70;;;;;;5069641;28;20450;-77
2023/05/04 12:11:15;;;;;;;3.90;3.50;;;21.10;65.90;;;;;;5069932;28;20814;-77
2023/05/04 12:13:46;;;;;;;3.57;3.27;;;21.20;65.30;;;;;;5069462;28;20939;-77
2023/05/04 12:16:12;;;;;;;3.93;3.63;;;21.20;66.80;;;;;;5070269;28;20419;-77
2023/05/04 12:18:38;;;;;;;3.80;3.50;;;21.30;66.50;;;;;;5069659;28;20412;-77
2023/05/04 12:21:17;;;;;;;5.37;3.73;;;21.30;68.30;;;;;;5069729;28;20529;-78
2023/05/04 12:23:43;;;;;;;4.27;3.43;;;21.30;67.30;;;;;;5069415;28;20447;-76
2023/05/04 12:26:10;;;;;;;4.00;3.40;;;21.40;69.30;;;;;;5069701;28;20956;-77
2023/05/04 12:28:38;;;;;;;3.40;3.10;;;21.40;63.10;;;;;;5069502;28;20924;-77
2023/05/04 12:31:05;;;;;;;4.37;2.77;;;21.50;61.40;;;;;;5069439;28;20462;-77
2023/05/04 12:33:31;;;;;;;3.73;3.13;;;21.50;63.10;;;;;;5069299;28;20412;-78
2023/05/04 12:36:00;;;;;;;3.50;3.20;;;21.50;65.30;;;;;;5069571;28;20426;-77
2023/05/04 12:38:27;;;;;;;5.37;3.47;;;21.50;60.30;;;;;;5050783;28;20414;-77
2023/05/04 12:40:53;;;;;;;4.60;3.60;;;21.50;59.10;;;;;;5069147;28;20443;-77
2023/05/04 12:43:21;;;;;;;3.40;3.10;;;21.60;58.80;;;;;;5050787;28;20439;-77
2023/05/04 12:45:48;;;;;;;4.87;3.10;;;21.60;59.30;;;;;;5069497;28;20494;-78
2023/05/04 12:48:14;;;;;;;4.47;3.10;;;21.60;61.90;;;;;;5068625;28;20430;-77